Last Month

Pierce College

Hourly Data | America/Los_Angeles
as of 9/30/22 7:33 PM PDT
Date & Time Temp Max (°F) Temp Min (°F) RH (%) Dew Pt (°F) Latest Rain (In) Soil Temp (°F) Soil Moist (%) Wind Spd (mph) Wind Dir (°) Wind Gust (mph) Leaf Wet Raw (mV) Net Radiation (W/m²) Evap Pan Max Wind (mph) Evap Pan H2O Max Temp (°F) Evap Pan Level (In)
8/31/22 - 2300 90.1 88.6 24 48.1 0.00 88.7 26.6 2.9 SSW | 208 7.6 262 -73 3.9 92.2 3.8
8/31/22 - 2200 89.9 88.1 26 49.5 0.00 92.7 26.6 4.6 SSW | 210 8.9 262 -75 4.5 88.3 3.8
8/31/22 - 2100 91.5 89.2 25 49.5 0.00 88.3 26.6 3.9 SSW | 210 8.9 262 -81 5.9 89.4 3.8
8/31/22 - 2000 97.5 91.3 21 47.3 0.00 88.2 26.6 5.0 SSW | 211 8.6 262 -84 5.6 96.8 3.8
8/31/22 - 1900 101.7 97.5 15 44.3 0.00 88.1 26.5 6.0 WSW | 238 11.3 261 -21 6.6 106.0 3.8
8/31/22 - 1800 105.5 101.4 13 43.1 0.00 88.0 26.4 7.2 WSW | 241 12.1 261 118 7.9 112.2 3.8
8/31/22 - 1700 108.4 105.3 12 43.5 0.00 87.4 26.3 2.8 WNW | 288 9.3 261 254 6.8 118.3 3.8
8/31/22 - 1600 110.0 107.1 10 40.5 0.00 86.7 26.3 5.4 W | 268 13.1 261 388 9.3 127.7 3.8
8/31/22 - 1500 110.5 108.3 10 40.4 0.00 86.4 26.2 6.2 WSW | 254 13.5 261 482 9.0 134.5 3.8
8/31/22 - 1400 112.3 108.3 10 40.9 0.00 86.1 26.1 4.0 W | 271 11.0 261 527 7.6 152.0 3.8
8/31/22 - 1300 110.8 105.3 13 46.6 0.00 85.9 26.1 2.9 SW | 225 8.2 261 542 5.4 154.1 3.8
8/31/22 - 1200 106.0 101.7 14 46.3 0.00 85.9 26.1 4.7 SW | 228 10.1 261 511 6.1 144.9 3.8
8/31/22 - 1100 101.8 97.0 16 46.7 0.00 86.0 26.1 4.7 SW | 223 9.0 261 435 6.4 124.8 3.8
8/31/22 - 1000 97.0 86.3 25 50.7 0.00 86.2 26.1 1.0 NNE | 33 6.1 261 322 4.9 108.4 3.8
8/31/22 - 0900 86.4 79.5 30 49.3 0.00 86.7 26.3 0.4 NE | 34 2.0 262 199 0.8 91.1 3.8
8/31/22 - 0800 79.5 67.3 42 46.8 0.00 88.5 26.3 0.1 NE | 56 1.5 265 35 0.7 70.4 3.8
8/31/22 - 0700 67.6 66.4 44 44.6 0.00 89.4 26.4 0.4 SSE | 164 3.1 266 -40 1.2 63.1 3.8
8/31/22 - 0600 67.9 66.2 42 43.7 0.00 89.1 26.4 0.3 S | 176 2.2 265 -46 0.0 62.3 3.8
8/31/22 - 0500 68.9 67.4 42 44.0 0.00 88.4 26.5 0.6 SSE | 164 3.3 265 -49 1.3 63.9 3.8
8/31/22 - 0400 69.9 68.3 41 44.4 0.00 87.4 26.5 0.5 S | 177 2.9 265 -50 1.4 64.5 3.8
8/31/22 - 0300 71.4 69.4 41 45.8 0.00 87.5 26.5 0.2 S | 172 1.8 265 -51 0.0 65.3 3.8
8/31/22 - 0200 72.6 70.7 39 45.6 0.00 87.5 26.5 0.5 S | 172 2.3 264 -53 1.5 68.4 3.8
8/31/22 - 0100 75.0 72.4 34 43.8 0.00 87.5 26.5 0.5 S | 174 2.4 264 -54 1.0 69.5 3.8
8/31/22 - 0000 80.0 74.9 29 42.2 0.00 87.8 26.5 0.4 SSE | 156 2.5 263 -58 1.4 74.3 3.8
8/30/22 - 2300 82.0 79.9 24 41.2 0.00 87.7 26.5 2.0 S | 184 5.7 263 -67 3.4 78.5 3.8
8/30/22 - 2200 81.7 81.2 26 42.8 0.00 87.7 26.5 4.3 SSW | 211 9.9 263 -74 5.3 81.2 3.8
8/30/22 - 2100 84.5 81.7 25 43.9 0.00 87.7 26.5 4.3 SW | 223 8.9 263 -78 5.4 85.2 3.8
8/30/22 - 2000 88.9 84.4 23 44.4 0.00 87.3 26.5 4.9 WSW | 238 10.7 263 -81 6.6 89.4 3.8
8/30/22 - 1900 95.2 88.9 19 44.3 0.00 86.9 26.5 5.2 WSW | 246 10.0 262 -13 7.5 97.5 3.8
8/30/22 - 1800 101.2 94.7 16 44.9 0.00 86.2 26.4 2.7 WNW | 293 11.4 261 124 7.7 103.7 3.8
8/30/22 - 1700 104.9 100.4 17 48.7 0.00 86.1 26.3 3.3 W | 276 10.6 261 265 6.5 112.0 3.8
8/30/22 - 1600 106.3 103.9 16 50.2 0.00 85.3 26.3 2.1 WNW | 297 9.1 261 392 6.9 119.8 3.8
8/30/22 - 1500 108.2 103.7 15 48.2 0.00 81.9 26.2 2.0 WSW | 244 8.2 261 484 4.9 127.4 3.8
8/30/22 - 1400 106.3 102.0 14 46.2 0.00 81.8 26.1 1.4 NNE | 25 8.4 261 536 5.9 151.9 3.8
8/30/22 - 1300 103.9 99.7 16 47.0 0.00 85.1 26.1 1.0 NE | 49 4.6 261 550 4.1 151.9 3.8
8/30/22 - 1200 99.8 91.8 21 48.8 0.00 85.2 26.1 1.5 W | 264 5.2 261 522 4.0 142.5 3.8
8/30/22 - 1100 92.8 84.5 29 51.7 0.00 85.1 26.1 1.7 WSW | 238 5.2 263 448 3.6 118.6 3.8
8/30/22 - 1000 85.0 77.9 41 55.6 0.00 85.5 26.1 0.7 N | 7 4.0 263 333 3.3 103.9 3.8
8/30/22 - 0900 78.3 72.5 52 57.0 0.00 85.6 26.3 0.4 NE | 47 2.0 266 206 1.9 87.0 3.8
8/30/22 - 0800 72.4 62.2 71 56.0 0.00 85.8 26.3 0.0 SE | 132 0.8 270 35 0.3 64.4 3.8
8/30/22 - 0700 62.3 61.3 79 55.0 0.00 86.3 26.4 0.0 SSE | 159 0.8 273 -40 0.3 56.5 3.8
8/30/22 - 0600 62.1 61.2 78 54.6 0.00 86.2 26.4 0.2 SSE | 165 1.3 274 -47 0.0 56.2 3.8
8/30/22 - 0500 62.8 61.8 76 54.8 0.00 86.7 26.4 0.3 SSE | 160 1.1 272 -49 0.0 57.1 3.8
8/30/22 - 0400 63.7 62.3 74 54.8 0.00 86.7 26.5 0.2 S | 172 1.5 272 -50 0.0 59.0 3.8
8/30/22 - 0300 64.6 63.2 73 55.0 0.00 87.0 26.5 0.4 S | 179 1.7 270 -51 1.1 60.8 3.8
8/30/22 - 0200 65.8 64.3 70 55.1 0.00 87.2 26.5 0.5 S | 169 2.0 270 -54 0.9 61.6 3.8
8/30/22 - 0100 67.3 65.4 66 54.7 0.00 87.3 26.5 0.2 S | 181 1.2 269 -55 0.4 61.9 3.8
8/30/22 - 0000 68.5 67.2 62 54.4 0.00 87.3 26.5 0.1 S | 182 1.2 268 -56 0.0 64.1 3.8
8/29/22 - 2300 71.2 68.4 58 53.9 0.00 87.3 26.6 0.1 S | 176 1.2 268 -59 0.0 66.3 3.8
8/29/22 - 2200 73.7 71.0 52 54.0 0.00 87.4 26.6 0.8 WSW | 238 4.2 267 -67 2.6 71.0 3.8
8/29/22 - 2100 76.3 73.4 49 54.4 0.00 87.3 26.6 2.5 SW | 234 5.7 266 -72 4.1 74.0 3.8
8/29/22 - 2000 80.8 76.1 43 53.7 0.00 87.2 26.6 3.2 SW | 220 8.9 266 -74 5.6 82.0 3.8
8/29/22 - 1900 86.7 80.6 34 52.2 0.00 86.6 26.5 5.1 SW | 236 9.0 264 -3 6.8 90.1 3.8
8/29/22 - 1800 91.9 86.4 30 53.0 0.00 86.6 26.5 4.8 W | 263 10.7 264 137 7.8 96.4 3.8
8/29/22 - 1700 93.2 90.0 30 55.6 0.00 86.3 26.4 3.8 W | 267 11.1 263 279 7.4 103.0 3.8
8/29/22 - 1600 97.6 92.2 28 56.5 0.00 86.0 26.3 2.3 WNW | 296 10.5 263 404 6.6 111.6 3.8
8/29/22 - 1500 95.5 92.0 23 50.0 0.00 85.7 26.3 1.7 NE | 44 4.9 263 499 3.4 117.1 3.8
8/29/22 - 1400 92.3 88.0 28 52.4 0.00 85.2 26.3 1.6 NNE | 33 4.8 263 548 3.6 127.6 3.8
8/29/22 - 1300 90.0 85.2 35 56.2 0.00 85.4 26.3 1.2 NNE | 29 4.6 263 569 4.3 126.2 3.8
8/29/22 - 1200 85.7 79.7 44 58.4 0.00 85.1 26.3 1.5 NNE | 19 5.5 264 531 4.7 119.1 3.8
8/29/22 - 1100 80.5 75.6 52 59.1 0.00 85.6 26.3 1.6 NNE | 22 4.3 265 454 2.5 103.0 3.8
8/29/22 - 1000 76.6 70.8 61 59.1 0.00 87.6 26.3 1.2 NNE | 28 4.5 266 336 2.8 94.8 3.8
8/29/22 - 0900 71.8 67.2 69 58.9 0.00 87.4 26.4 1.2 ENE | 66 4.0 267 197 3.0 81.0 3.8
8/29/22 - 0800 67.3 61.0 83 58.2 0.00 87.1 26.5 0.4 ENE | 72 2.4 272 46 1.3 65.9 3.8
8/29/22 - 0700 61.6 60.4 87 57.0 0.00 86.4 26.5 0.2 S | 190 2.0 266 -17 0.9 58.6 3.8
8/29/22 - 0600 62.4 60.8 85 57.1 0.00 86.6 26.5 0.1 SSE | 167 1.2 223 -34 0.0 58.1 3.8
8/29/22 - 0500 62.7 61.6 84 57.2 0.00 86.9 26.6 0.2 SSE | 155 1.6 275 -39 0.8 59.6 3.8
8/29/22 - 0400 63.5 62.2 82 57.4 0.00 87.1 26.6 0.2 S | 180 1.8 275 -46 0.0 60.4 3.8
8/29/22 - 0300 63.7 63.0 80 57.0 0.00 87.4 26.6 0.3 SSE | 150 1.8 274 -47 0.7 59.8 3.8
8/29/22 - 0200 64.9 63.6 77 56.9 0.00 87.4 26.6 0.2 SE | 131 1.7 273 -51 0.0 60.9 3.8
8/29/22 - 0100 65.2 64.0 75 56.3 0.00 87.0 26.6 0.1 SSE | 168 1.0 272 -54 1.1 61.7 3.8
8/29/22 - 0000 67.4 64.9 70 56.2 0.00 87.7 26.6 0.7 SSW | 204 2.2 270 -56 1.3 63.3 3.8
8/28/22 - 2300 69.3 67.2 67 56.9 0.00 86.3 26.7 0.9 SSW | 202 3.5 269 -60 2.1 67.0 3.8
8/28/22 - 2200 71.0 69.0 64 57.2 0.00 87.7 26.7 2.2 SW | 228 6.8 268 -63 3.6 69.6 3.8
8/28/22 - 2100 74.3 70.8 59 57.5 0.00 87.5 26.7 3.6 SW | 221 7.6 268 -68 5.3 73.2 3.8
8/28/22 - 2000 79.5 74.1 52 58.1 0.00 87.5 26.7 3.9 WSW | 238 7.5 267 -70 4.4 80.9 3.8
8/28/22 - 1900 84.1 79.3 46 58.9 0.00 87.4 26.6 4.2 WSW | 242 7.9 266 4 4.9 88.3 3.8
8/28/22 - 1800 86.2 83.7 42 59.1 0.00 87.0 26.6 3.8 SSW | 213 7.9 266 148 4.7 92.9 3.8
8/28/22 - 1700 88.6 84.6 39 58.7 0.00 87.0 26.6 3.6 S | 173 8.3 266 291 5.6 100.0 3.8
8/28/22 - 1600 88.3 85.7 37 57.6 0.00 86.4 26.5 3.1 S | 188 7.8 264 418 5.2 106.3 3.8
8/28/22 - 1500 89.9 86.5 37 58.7 0.00 86.9 26.5 2.4 NE | 43 6.2 264 505 4.9 112.4 3.8
8/28/22 - 1400 87.9 85.2 38 58.2 0.00 86.2 26.4 2.0 NNE | 33 5.7 264 554 3.9 128.5 3.8
8/28/22 - 1300 86.6 81.6 41 58.2 0.00 87.7 26.4 1.8 NNE | 17 6.1 264 568 3.4 127.8 3.8
8/28/22 - 1200 82.5 77.7 48 58.7 0.00 87.6 26.4 2.0 NNE | 26 6.0 265 536 3.0 118.8 3.8
8/28/22 - 1100 78.2 73.4 56 58.8 0.00 87.6 26.4 2.1 NE | 48 4.9 266 456 3.5 101.2 3.8
8/28/22 - 1000 73.9 69.7 63 58.6 0.00 87.4 26.5 1.7 E | 82 6.2 266 316 3.5 93.3 3.8
8/28/22 - 0900 70.1 66.9 69 58.3 0.00 87.1 26.6 0.9 ENE | 70 3.8 269 97 2.6 80.5 3.8
8/28/22 - 0800 67.2 65.3 76 58.4 0.00 86.7 26.6 1.4 ESE | 111 5.0 270 25 2.7 71.5 3.8
8/28/22 - 0700 65.6 64.7 81 59.2 0.00 86.9 26.6 1.6 E | 101 5.3 272 -9 2.4 67.7 3.8
8/28/22 - 0600 65.0 64.2 84 59.7 0.00 86.9 26.6 1.7 E | 80 5.0 273 -11 2.6 67.2 3.8
8/28/22 - 0500 65.0 64.2 84 59.4 0.00 87.0 26.6 1.5 ESE | 104 5.3 272 -11 4.0 67.2 3.8
8/28/22 - 0400 64.6 63.8 83 59.1 0.00 87.5 26.6 1.1 SE | 144 3.0 272 -13 2.5 66.0 3.8
8/28/22 - 0300 65.0 63.4 82 58.8 0.00 87.3 26.7 0.3 SE | 125 3.0 274 -43 0.7 62.5 3.8
8/28/22 - 0200 66.0 64.9 80 59.2 0.00 87.8 26.7 0.5 E | 87 2.8 274 -52 1.6 66.0 3.8
8/28/22 - 0100 66.3 65.6 78 58.8 0.00 87.7 26.7 0.4 E | 82 2.7 272 -54 1.8 65.2 3.8
8/28/22 - 0000 67.7 66.0 74 58.4 0.00 87.4 26.7 0.3 ENE | 58 2.0 271 -56 0.2 68.6 3.8
8/27/22 - 2300 70.2 67.5 73 59.5 0.00 87.6 26.8 1.0 ENE | 68 3.7 270 -57 1.6 69.4 3.8
8/27/22 - 2200 72.3 70.0 68 59.6 0.00 87.8 26.8 0.9 ENE | 59 3.3 269 -61 1.8 72.6 3.8
8/27/22 - 2100 76.6 72.2 59 59.1 0.00 87.7 26.8 1.2 E | 82 3.8 268 -65 1.8 75.6 3.8
8/27/22 - 2000 83.0 76.5 47 57.6 0.00 87.6 26.8 0.9 ENE | 69 3.6 266 -68 1.6 86.0 3.8
8/27/22 - 1900 89.9 83.0 35 55.6 0.00 87.1 26.7 1.4 NNE | 26 5.0 265 5 3.9 93.2 3.8
8/27/22 - 1800 92.0 89.5 31 55.9 0.00 85.4 26.6 1.4 NNW | 342 5.9 264 145 4.8 97.4 3.8
8/27/22 - 1700 91.9 88.7 33 56.7 0.00 85.1 26.6 3.4 S | 177 11.5 263 289 6.5 102.6 3.8
8/27/22 - 1600 90.8 87.8 32 55.4 0.00 85.8 26.6 3.3 S | 184 8.4 263 417 6.5 109.4 3.8
8/27/22 - 1500 90.7 87.7 32 55.5 0.00 84.6 26.5 4.3 S | 179 9.7 264 507 6.4 114.4 3.8
8/27/22 - 1400 90.4 87.6 33 56.1 0.00 84.2 26.5 2.4 NE | 51 6.1 263 550 3.7 127.0 3.8
8/27/22 - 1300 88.9 85.4 36 57.2 0.00 85.7 26.4 2.2 NE | 48 5.4 263 563 3.7 126.9 3.8
8/27/22 - 1200 86.5 81.5 43 59.1 0.00 86.0 26.4 2.1 NNE | 26 5.3 264 528 2.6 121.2 3.8
8/27/22 - 1100 82.0 77.5 51 60.3 0.00 86.0 26.4 1.5 NNE | 33 4.7 264 452 2.4 105.2 3.8
8/27/22 - 1000 78.7 73.4 58 60.0 0.00 86.3 26.5 1.1 NE | 35 3.8 264 335 2.1 98.0 3.8
8/27/22 - 0900 73.5 68.8 66 59.7 0.00 86.6 26.6 0.6 NNE | 27 2.8 266 201 1.9 84.0 3.8
8/27/22 - 0800 68.9 62.3 79 58.7 0.00 86.9 26.6 0.2 SE | 142 2.1 271 38 1.2 67.8 3.8
8/27/22 - 0700 62.6 61.8 84 57.3 0.00 87.0 26.7 0.0 N | 0 0.0 273 -19 0.0 58.6 3.8
8/27/22 - 0600 63.1 62.2 83 57.3 0.00 87.2 26.7 0.1 SSE | 168 0.8 272 -34 0.0 57.7 3.8
8/27/22 - 0500 63.7 62.6 82 57.7 0.00 87.4 26.7 0.1 SSE | 167 1.0 274 -41 0.0 58.6 3.8
8/27/22 - 0400 64.6 63.0 80 57.6 0.00 87.6 26.8 0.1 SSE | 159 1.0 274 -48 0.0 59.8 3.8
8/27/22 - 0300 65.6 64.3 77 57.8 0.00 87.6 26.8 0.2 SSE | 158 1.1 273 -52 0.0 62.0 3.8
8/27/22 - 0200 67.4 65.4 73 57.4 0.00 88.1 26.8 0.1 ESE | 110 1.9 271 -55 0.0 63.6 3.8
8/27/22 - 0100 69.3 67.2 69 57.9 0.00 87.9 26.8 0.6 ENE | 64 2.4 270 -62 0.9 66.4 3.8
8/27/22 - 0000 71.0 69.1 68 58.8 0.00 88.2 26.8 0.8 NE | 51 3.3 269 -65 1.5 68.7 3.8
8/26/22 - 2300 73.4 70.7 65 59.5 0.00 88.2 26.8 0.4 NE | 52 2.4 268 -65 1.6 69.5 3.8
8/26/22 - 2200 76.5 73.2 59 59.2 0.00 88.0 26.8 0.3 ENE | 62 3.0 268 -67 0.8 72.2 3.8
8/26/22 - 2100 80.9 76.5 38 51.0 0.00 87.8 26.8 1.0 WSW | 239 3.6 266 -70 2.5 78.9 3.8
8/26/22 - 2000 85.5 80.9 31 48.9 0.00 87.9 26.8 1.1 WNW | 286 5.9 264 -75 3.8 87.4 3.8
8/26/22 - 1900 92.1 85.5 25 48.3 0.00 87.4 26.8 2.1 WNW | 291 7.7 263 -3 5.7 94.8 3.8
8/26/22 - 1800 95.4 92.0 23 50.7 0.00 87.3 26.7 1.5 NW | 310 7.9 262 137 6.1 101.5 3.8
8/26/22 - 1700 97.8 95.0 24 53.3 0.00 87.1 26.6 1.5 NE | 45 3.6 263 278 3.1 109.1 3.8
8/26/22 - 1600 98.3 96.4 23 53.9 0.00 86.6 26.6 2.5 NE | 47 6.8 263 403 3.3 115.8 3.8
8/26/22 - 1500 98.4 95.3 26 56.1 0.00 86.6 26.6 2.8 ENE | 63 7.8 263 496 3.4 121.7 3.8
8/26/22 - 1400 97.7 95.0 27 56.3 0.00 86.2 26.5 2.2 NE | 55 6.2 263 544 3.1 134.1 3.8
8/26/22 - 1300 96.0 92.0 25 52.8 0.00 84.9 26.5 1.6 NE | 43 6.8 262 558 3.8 140.4 3.8
8/26/22 - 1200 92.2 85.7 30 54.0 0.00 86.2 26.4 1.3 NNE | 18 5.4 263 527 4.4 134.4 3.8
8/26/22 - 1100 87.0 80.0 42 58.5 0.00 86.2 26.5 1.3 NE | 41 4.6 263 453 3.6 115.6 3.8
8/26/22 - 1000 81.2 74.9 56 60.8 0.00 86.7 26.5 1.0 NNE | 14 3.6 265 336 2.1 104.4 3.8
8/26/22 - 0900 75.1 71.4 65 61.2 0.00 86.6 26.6 0.8 E | 88 3.5 266 201 2.2 87.0 3.8
8/26/22 - 0800 71.6 63.5 77 59.7 0.00 87.7 26.7 0.2 E | 99 2.5 270 19 1.4 68.2 3.8
8/26/22 - 0700 63.8 62.7 82 57.9 0.00 87.3 26.7 0.3 S | 172 1.8 274 -31 0.0 59.0 3.8
8/26/22 - 0600 63.8 62.8 82 57.6 0.00 89.4 26.8 0.3 SSE | 166 1.6 274 -45 0.0 59.8 3.8
8/26/22 - 0500 64.5 63.2 80 57.7 0.00 87.5 26.8 0.4 SSE | 165 1.4 274 -49 0.0 59.1 3.8
8/26/22 - 0400 66.4 64.1 77 57.9 0.00 87.3 26.8 0.3 SSE | 168 1.6 273 -52 0.0 60.1 3.8
8/26/22 - 0300 67.1 65.4 74 57.5 0.00 85.1 26.8 0.3 SSE | 166 1.5 270 -54 0.0 61.4 3.8
8/26/22 - 0200 68.4 66.4 71 57.6 0.00 87.6 26.8 0.2 S | 188 1.1 270 -55 0.0 64.1 3.8
8/26/22 - 0100 71.0 68.3 69 58.8 0.00 87.9 26.9 0.2 SE | 125 1.4 269 -58 0.6 68.3 3.8
8/26/22 - 0000 73.6 70.8 65 59.9 0.00 87.0 26.9 0.6 ENE | 68 3.0 268 -62 1.4 70.4 3.8
8/25/22 - 2300 75.5 73.6 54 56.9 0.00 88.2 26.9 0.6 ESE | 108 3.5 267 -61 1.4 70.5 3.8
8/25/22 - 2200 78.0 75.5 47 55.4 0.00 88.2 26.9 0.1 ESE | 112 1.4 266 -60 0.0 73.9 3.8
8/25/22 - 2100 82.7 77.8 43 55.4 0.00 85.8 26.9 0.3 SE | 131 2.1 266 -64 0.7 82.4 3.8
8/25/22 - 2000 86.8 82.7 36 55.4 0.00 87.8 26.8 1.6 W | 269 5.8 264 -66 4.4 89.9 3.8
8/25/22 - 1900 89.8 86.6 35 56.7 0.00 87.7 26.8 3.7 SSW | 202 7.7 264 2 5.0 94.7 3.8
8/25/22 - 1800 94.3 89.7 30 55.4 0.00 87.0 26.7 3.7 S | 172 7.5 263 107 5.0 104.8 3.8
8/25/22 - 1700 96.1 93.9 20 48.1 0.00 87.1 26.6 3.4 S | 189 7.8 263 284 5.1 112.4 3.8
8/25/22 - 1600 97.0 94.9 16 42.5 0.00 87.8 26.6 3.6 SSW | 200 7.6 262 409 4.8 121.3 3.8
8/25/22 - 1500 96.8 93.1 19 46.3 0.00 87.4 26.6 3.4 SSE | 158 7.5 262 501 4.6 124.7 3.8
8/25/22 - 1400 96.1 92.3 21 48.6 0.00 89.1 26.5 2.9 E | 94 8.8 262 549 5.6 140.9 3.8
8/25/22 - 1300 94.1 92.3 27 54.2 0.00 89.2 26.5 2.7 E | 92 9.0 262 562 4.5 143.7 3.8
8/25/22 - 1200 92.8 89.2 31 56.4 0.00 89.0 26.4 2.4 NE | 50 4.8 263 521 2.9 132.7 3.8
8/25/22 - 1100 90.0 85.3 37 57.6 0.00 89.2 26.5 1.9 NE | 56 7.5 263 444 4.0 117.6 3.8
8/25/22 - 1000 85.8 78.7 44 58.2 0.00 89.1 26.5 1.1 NE | 36 4.2 264 330 2.9 111.3 3.8
8/25/22 - 0900 79.5 73.9 56 60.2 0.00 89.0 26.6 0.7 NE | 47 3.4 266 200 1.2 93.3 3.8
8/25/22 - 0800 74.0 66.2 73 60.4 0.00 86.9 26.7 0.0 SSE | 150 1.0 268 15 0.0 69.7 3.8
8/25/22 - 0700 66.6 65.4 80 59.6 0.00 86.8 26.7 0.1 SSE | 165 1.2 273 -38 0.0 62.0 3.8
8/25/22 - 0600 67.6 66.2 79 60.1 0.00 87.0 26.7 0.3 S | 172 1.8 274 -45 0.7 63.8 3.8
8/25/22 - 0500 68.5 67.4 77 60.3 0.00 87.4 26.8 0.7 S | 177 2.2 272 -45 1.1 66.5 3.8
8/25/22 - 0400 69.3 68.2 75 60.4 0.00 87.6 26.8 0.2 SE | 139 1.5 271 -35 0.0 67.1 3.8
8/25/22 - 0300 69.3 68.0 74 59.9 0.00 87.5 26.8 0.3 ESE | 106 1.8 270 -41 1.1 67.2 3.8
8/25/22 - 0200 70.9 68.6 71 59.9 0.00 87.7 26.8 0.2 E | 91 2.8 271 -54 1.6 68.4 3.8
8/25/22 - 0100 71.8 70.7 69 60.4 0.00 87.7 26.8 0.7 NE | 53 2.6 269 -53 1.8 69.0 3.8
8/25/22 - 0000 72.8 71.5 65 60.0 0.00 87.6 26.8 0.6 NE | 49 2.5 269 -57 1.4 69.3 3.8
8/24/22 - 2300 74.5 72.6 62 59.6 0.00 88.1 26.9 0.7 ENE | 69 4.2 268 -57 2.1 72.2 3.8
8/24/22 - 2200 75.8 74.1 60 60.1 0.00 87.9 26.8 1.0 ENE | 67 3.3 268 -59 1.7 74.9 3.8
8/24/22 - 2100 78.4 75.6 55 59.6 0.00 87.8 26.9 1.4 ENE | 71 5.2 267 -63 2.6 78.6 3.8
8/24/22 - 2000 82.6 78.3 52 60.6 0.00 87.5 26.8 1.9 ENE | 78 5.6 266 -60 3.6 85.1 3.8
8/24/22 - 1900 85.4 82.5 42 58.8 0.00 87.4 26.8 2.5 ESE | 120 6.8 266 19 4.9 91.0 3.8
8/24/22 - 1800 88.3 84.5 35 55.4 0.00 87.2 26.8 4.6 SSE | 154 10.3 264 155 6.7 96.7 3.8
8/24/22 - 1700 91.7 88.1 26 50.0 0.00 86.4 26.7 4.4 SE | 127 10.1 263 292 4.5 106.4 3.8
8/24/22 - 1600 92.8 90.6 26 51.6 0.00 86.6 26.6 4.0 SE | 134 10.2 263 416 6.3 113.8 3.8
8/24/22 - 1500 94.4 91.9 26 53.8 0.00 86.3 26.6 3.4 SE | 128 9.2 263 504 4.9 122.2 3.8
8/24/22 - 1400 94.9 91.7 29 56.3 0.00 85.9 26.5 3.1 SSE | 160 9.0 263 552 5.5 140.4 3.8
8/24/22 - 1300 93.0 89.5 32 57.3 0.00 86.1 26.5 2.5 SE | 144 6.9 263 565 4.5 137.6 3.8
8/24/22 - 1200 90.8 86.5 39 60.7 0.00 85.7 26.5 2.2 NE | 48 7.9 263 526 5.3 124.9 3.8
8/24/22 - 1100 86.9 80.1 47 61.2 0.00 90.4 26.5 2.0 NE | 40 5.3 264 447 2.8 113.7 3.8
8/24/22 - 1000 80.3 76.7 57 61.9 0.00 89.4 26.5 1.7 NE | 41 4.7 266 330 2.7 107.0 3.8
8/24/22 - 0900 77.2 70.4 66 61.7 0.00 89.7 26.6 0.6 ENE | 67 4.6 266 198 3.0 94.1 3.8
8/24/22 - 0800 70.6 64.3 80 61.0 0.00 90.8 26.7 0.2 SE | 126 1.9 269 25 0.9 71.6 3.8
8/24/22 - 0700 64.7 63.3 86 59.8 0.00 89.6 26.8 0.3 S | 172 1.4 263 -19 0.5 62.0 3.8
8/24/22 - 0600 64.6 63.6 85 59.6 0.00 88.8 26.8 0.2 S | 170 1.3 217 -39 0.0 62.2 3.8
8/24/22 - 0500 65.6 64.4 84 59.9 0.00 87.2 26.8 0.5 SSE | 166 1.5 268 -46 0.7 63.1 3.8
8/24/22 - 0400 66.9 65.2 82 60.6 0.00 87.4 26.8 0.2 S | 184 1.2 275 -46 0.8 63.1 3.8
8/24/22 - 0300 67.4 66.2 80 60.5 0.00 87.6 26.8 0.1 SE | 136 1.3 274 -48 0.6 63.8 3.8
8/24/22 - 0200 69.0 67.2 77 60.6 0.00 87.1 26.8 0.1 ESE | 109 1.6 272 -50 0.7 68.3 3.8
8/24/22 - 0100 70.1 68.8 74 60.9 0.00 88.0 26.9 0.3 ENE | 69 2.2 271 -56 0.9 69.1 3.8
8/24/22 - 0000 71.5 69.9 72 61.2 0.00 87.8 26.8 0.4 NE | 49 1.9 270 -59 1.2 70.9 3.8
8/23/22 - 2300 73.2 71.4 67 60.9 0.00 87.7 26.9 0.6 NE | 48 1.9 269 -60 0.6 70.2 3.8
8/23/22 - 2200 74.0 71.8 57 56.7 0.00 87.9 26.9 0.4 SSE | 160 3.1 268 -61 1.9 70.5 3.8
8/23/22 - 2100 77.3 73.7 50 54.8 0.00 87.9 26.9 0.8 S | 177 3.4 266 -67 2.2 75.3 3.8
8/23/22 - 2000 82.8 77.1 46 56.7 0.00 88.0 26.9 1.0 NE | 39 3.4 266 -70 1.7 85.6 3.8
8/23/22 - 1900 89.8 82.8 41 60.0 0.00 87.2 26.8 1.7 NE | 47 4.3 265 9 1.8 97.2 3.8
8/23/22 - 1800 98.4 89.8 31 59.0 0.00 86.8 26.7 2.1 NE | 48 4.5 264 145 2.6 106.8 3.8
8/23/22 - 1700 101.6 98.2 24 56.7 0.00 86.4 26.6 2.0 NE | 49 5.5 263 281 3.8 113.2 3.8
8/23/22 - 1600 102.7 100.1 24 57.6 0.00 86.2 26.6 2.4 NE | 50 6.0 263 405 3.7 121.7 3.8
8/23/22 - 1500 101.2 97.5 27 59.7 0.00 86.2 26.5 2.3 E | 99 7.1 263 499 4.1 129.7 3.8
8/23/22 - 1400 99.2 94.5 29 59.7 0.00 85.6 26.5 1.7 ENE | 73 6.1 263 549 4.2 140.7 3.8
8/23/22 - 1300 95.0 89.8 33 59.7 0.00 85.5 26.4 1.8 NE | 52 5.0 263 563 4.3 140.6 3.8
8/23/22 - 1200 91.7 86.2 37 59.7 0.00 85.6 26.4 1.7 NE | 54 5.1 263 529 4.3 135.5 3.8
8/23/22 - 1100 86.5 80.7 45 60.0 0.00 85.5 26.4 1.7 NNE | 29 4.8 264 453 2.9 122.3 3.8
8/23/22 - 1000 81.1 77.3 51 59.6 0.00 86.0 26.5 1.6 NNE | 28 3.8 265 338 1.7 115.0 3.8
8/23/22 - 0900 77.6 69.2 61 58.6 0.00 86.1 26.6 0.9 W | 275 3.8 266 192 2.5 95.8 3.8
8/23/22 - 0800 69.5 62.8 74 58.0 0.00 86.3 26.6 1.0 WSW | 250 3.6 268 15 2.7 69.9 3.8
8/23/22 - 0700 63.0 61.6 84 57.2 0.00 86.5 26.7 0.5 S | 171 2.2 275 -31 1.1 60.2 3.8
8/23/22 - 0600 62.9 61.8 83 57.2 0.00 86.6 26.7 0.2 SSE | 166 0.9 267 -44 0.6 59.3 3.8
8/23/22 - 0500 63.8 62.4 82 57.5 0.00 86.6 26.8 0.2 S | 172 1.1 274 -46 0.0 59.3 3.8
8/23/22 - 0400 64.5 63.2 80 57.8 0.00 87.0 26.8 0.3 S | 187 1.6 274 -48 0.0 60.8 3.8
8/23/22 - 0300 65.7 64.3 78 58.2 0.00 87.3 26.8 0.2 S | 177 1.1 274 -50 0.0 62.2 3.8
8/23/22 - 0200 66.4 65.0 76 58.2 0.00 87.2 26.8 0.4 S | 171 1.8 272 -52 0.7 63.5 3.8
8/23/22 - 0100 68.8 66.3 73 58.5 0.00 90.8 26.8 0.3 S | 170 2.0 271 -55 1.2 66.6 3.8
8/23/22 - 0000 70.6 68.5 69 58.8 0.00 89.6 26.8 0.5 ENE | 74 3.1 270 -60 1.9 68.1 3.8
8/22/22 - 2300 71.5 70.4 65 58.8 0.00 87.5 26.8 0.5 ENE | 68 2.7 268 -61 1.1 69.2 3.8
8/22/22 - 2200 73.9 71.3 62 58.7 0.00 84.5 26.8 0.9 E | 84 4.4 268 -64 1.6 73.4 3.8
8/22/22 - 2100 79.7 73.8 53 58.3 0.00 85.8 26.8 0.9 E | 81 4.5 267 -68 2.1 77.6 3.8
8/22/22 - 2000 86.0 79.6 44 58.3 0.00 87.2 26.8 0.9 E | 94 3.7 266 -66 2.3 88.5 3.8
8/22/22 - 1900 89.8 86.0 37 58.1 0.00 87.1 26.8 1.3 NE | 40 3.9 265 13 1.9 94.9 3.8
8/22/22 - 1800 92.1 89.6 34 59.1 0.00 86.7 26.7 1.9 NE | 54 5.5 264 152 2.5 100.4 3.8
8/22/22 - 1700 93.9 91.7 34 59.8 0.00 86.4 26.6 2.2 NE | 51 6.4 264 296 2.9 107.8 3.8
8/22/22 - 1600 94.3 91.6 34 60.5 0.00 86.2 26.6 2.2 NE | 53 6.2 264 421 3.4 114.3 3.8
8/22/22 - 1500 94.0 89.2 36 61.0 0.00 85.9 26.6 1.7 ENE | 62 5.6 264 512 4.4 123.1 3.8
8/22/22 - 1400 90.9 86.5 42 62.2 0.00 83.2 26.5 1.7 NNE | 33 5.8 264 563 3.5 134.7 3.8
8/22/22 - 1300 86.7 82.3 47 62.2 0.00 86.0 26.5 1.6 NE | 36 4.1 265 576 4.2 134.3 3.8
8/22/22 - 1200 82.4 78.5 53 61.8 0.00 85.7 26.5 1.8 NE | 52 5.1 266 540 3.3 120.8 3.8
8/22/22 - 1100 78.8 74.0 59 61.2 0.00 85.5 26.5 1.7 NE | 43 4.5 266 460 3.0 112.4 3.8
8/22/22 - 1000 74.5 67.3 69 60.3 0.00 85.9 26.6 1.2 E | 91 4.3 266 337 3.0 106.1 3.8
8/22/22 - 0900 67.7 64.7 81 60.0 0.00 86.3 26.6 1.1 SSE | 164 3.6 270 105 2.7 79.4 3.8
8/22/22 - 0800 65.0 63.3 86 59.7 0.00 86.3 26.7 1.3 SSE | 155 4.1 272 32 2.1 70.1 3.8
8/22/22 - 0700 63.9 62.8 87 59.6 0.00 86.6 26.7 0.7 SSE | 155 3.3 274 -4 2.6 67.2 3.8
8/22/22 - 0600 64.1 62.8 85 59.0 0.00 86.5 26.7 0.5 NE | 53 2.9 216 -33 0.8 63.6 3.8
8/22/22 - 0500 64.1 63.0 84 58.9 0.00 87.0 26.8 0.1 ENE | 77 1.5 234 -39 0.0 61.6 3.8
8/22/22 - 0400 64.8 63.5 83 58.8 0.00 87.0 26.8 0.2 SSW | 192 1.4 272 -44 0.0 60.2 3.8
8/22/22 - 0300 65.6 64.3 82 59.1 0.00 87.4 26.9 0.4 S | 184 1.9 274 -48 0.9 62.4 3.8
8/22/22 - 0200 66.6 65.1 80 59.3 0.00 87.3 26.9 0.4 S | 183 1.6 272 -49 1.0 61.8 3.8
8/22/22 - 0100 68.0 66.2 77 59.5 0.00 87.4 26.9 0.0 SE | 133 0.7 272 -51 0.0 63.7 3.8
8/22/22 - 0000 69.4 67.9 73 59.6 0.00 87.7 26.9 0.3 ESE | 111 2.0 270 -55 0.0 65.6 3.8
8/21/22 - 2300 72.2 69.3 68 59.5 0.00 87.4 26.9 0.1 SE | 131 1.6 269 -56 0.0 68.6 3.8
8/21/22 - 2200 73.9 71.9 62 59.4 0.00 87.6 26.9 0.6 SSW | 201 3.0 268 -60 2.4 70.8 3.8
8/21/22 - 2100 78.5 73.8 57 59.7 0.00 87.6 26.9 0.5 SE | 128 2.7 268 -66 1.6 77.8 3.8
8/21/22 - 2000 83.0 78.2 51 60.2 0.00 87.4 26.9 1.2 WNW | 283 6.1 267 -66 3.9 86.0 3.8
8/21/22 - 1900 86.2 82.8 45 60.5 0.00 87.7 26.9 1.6 NNE | 29 5.0 266 19 1.6 93.4 3.8
8/21/22 - 1800 88.6 85.9 40 60.6 0.00 86.8 26.8 2.1 ENE | 72 5.9 265 161 4.7 98.2 3.8
8/21/22 - 1700 91.0 87.7 37 60.1 0.00 86.7 26.7 1.7 ENE | 72 5.6 265 301 2.9 106.0 3.8
8/21/22 - 1600 90.2 87.1 41 61.3 0.00 86.3 26.7 2.2 ESE | 106 7.7 265 429 5.4 112.1 3.8
8/21/22 - 1500 89.2 84.3 43 61.6 0.00 86.2 26.7 2.1 ENE | 73 7.5 265 518 4.9 116.1 3.8
8/21/22 - 1400 85.8 82.1 46 61.2 0.00 85.8 26.6 1.8 ENE | 71 6.6 265 570 5.0 133.4 3.8
8/21/22 - 1300 82.9 79.7 50 61.0 0.00 86.0 26.6 1.7 NNE | 32 5.5 265 580 5.5 128.3 3.8
8/21/22 - 1200 79.9 73.6 58 60.5 0.00 86.0 26.6 2.0 ENE | 75 10.0 266 528 4.0 119.5 3.8
8/21/22 - 1100 75.4 70.4 64 60.2 0.00 86.0 26.7 1.7 E | 79 6.9 267 291 2.9 101.1 3.8
8/21/22 - 1000 71.2 68.0 72 60.0 0.00 86.4 26.7 1.6 E | 96 5.0 268 139 3.4 85.0 3.8
8/21/22 - 0900 68.2 66.2 78 59.9 0.00 86.5 26.8 1.1 SE | 142 4.6 270 54 2.9 75.4 3.8
8/21/22 - 0800 66.4 65.5 81 60.0 0.00 86.0 26.8 1.1 SE | 141 3.4 271 15 2.2 70.6 3.8
8/21/22 - 0700 66.0 65.3 82 60.1 0.00 87.1 26.8 1.0 SE | 134 3.5 272 -8 2.4 67.8 3.8
8/21/22 - 0600 65.8 64.1 83 60.0 0.00 87.1 26.9 0.6 ENE | 70 2.8 272 -13 1.4 66.7 3.8
8/21/22 - 0500 64.3 62.6 87 59.3 0.00 87.5 26.9 0.1 E | 91 1.0 274 -14 0.0 63.3 3.8
8/21/22 - 0400 64.1 62.6 87 59.6 0.00 87.6 26.9 0.3 S | 188 1.8 225 -26 0.6 60.5 3.8
8/21/22 - 0300 64.6 63.5 85 59.6 0.00 88.1 27.0 0.0 S | 190 0.7 260 -38 0.0 61.6 3.8
8/21/22 - 0200 66.1 64.3 82 59.5 0.00 87.9 27.0 0.2 S | 176 1.4 272 -50 0.0 62.8 3.8
8/21/22 - 0100 67.9 66.0 79 60.3 0.00 88.1 27.0 0.5 ESE | 110 2.9 272 -55 0.6 65.3 3.8
8/21/22 - 0000 69.3 67.4 76 60.5 0.00 87.9 27.0 0.2 ENE | 76 1.8 271 -58 0.7 66.9 3.8
8/20/22 - 2300 71.0 69.2 72 60.6 0.00 88.1 27.0 0.9 NE | 49 2.7 270 -60 1.3 69.0 3.8
8/20/22 - 2200 72.3 70.9 67 60.1 0.00 88.3 27.0 0.9 ENE | 67 3.9 268 -61 1.2 69.9 3.8
8/20/22 - 2100 74.9 72.1 63 59.7 0.00 88.2 27.0 1.3 S | 172 4.2 267 -65 2.7 73.2 3.8
8/20/22 - 2000 79.6 74.8 55 59.5 0.00 87.9 27.0 1.9 S | 172 5.3 266 -63 3.7 84.2 3.8
8/20/22 - 1900 85.0 79.5 43 57.7 0.00 87.8 26.9 2.2 SSE | 149 7.1 266 22 4.0 93.1 3.8
8/20/22 - 1800 89.3 84.6 37 57.8 0.00 90.5 26.9 2.4 SE | 132 6.7 264 163 3.9 98.3 3.8
8/20/22 - 1700 89.3 87.3 38 59.3 0.00 90.7 26.9 2.8 ESE | 105 7.1 264 307 4.4 102.2 3.8
8/20/22 - 1600 89.6 86.8 42 62.6 0.00 91.1 26.9 3.3 E | 89 8.2 265 432 5.3 112.3 3.8
8/20/22 - 1500 89.8 87.9 42 63.0 0.00 90.4 26.8 2.4 NE | 41 5.7 264 512 3.2 121.5 3.8
8/20/22 - 1400 88.7 84.5 44 62.3 0.00 90.3 26.7 2.5 NE | 51 6.9 264 563 4.1 131.1 3.8
8/20/22 - 1300 85.7 82.4 46 61.2 0.00 90.0 26.7 2.5 ENE | 58 7.1 264 573 3.9 130.2 3.8
8/20/22 - 1200 84.0 80.4 48 60.4 0.00 90.2 26.7 2.7 NE | 53 7.5 264 536 3.8 123.6 3.8
8/20/22 - 1100 80.7 77.3 51 59.7 0.00 90.2 26.7 2.6 NE | 36 6.8 264 458 2.7 119.0 3.8
8/20/22 - 1000 77.8 74.7 56 59.7 0.00 90.5 26.7 2.1 NE | 34 4.7 265 340 1.9 113.2 3.8
8/20/22 - 0900 74.7 69.5 66 59.8 0.00 91.1 26.8 1.5 E | 82 4.5 266 139 2.5 96.5 3.8
8/20/22 - 0800 69.8 63.7 75 58.7 0.00 90.5 26.9 0.4 ESE | 107 5.0 267 -3 2.4 71.4 3.8
8/20/22 - 0700 64.0 62.4 80 56.8 0.00 89.6 26.9 0.1 SSE | 166 1.0 271 -36 0.0 61.3 3.8
8/20/22 - 0600 64.1 62.8 79 56.8 0.00 88.4 26.9 0.2 S | 189 1.3 272 -46 0.0 59.0 3.8
8/20/22 - 0500 64.6 63.2 77 56.7 0.00 87.9 26.9 0.2 SSE | 162 1.3 270 -47 0.0 61.0 3.8
8/20/22 - 0400 65.2 63.9 76 56.8 0.00 88.0 27.0 0.3 SSW | 192 1.5 270 -47 0.0 60.3 3.8
8/20/22 - 0300 66.5 64.8 73 56.8 0.00 87.3 27.0 0.1 S | 178 0.9 270 -51 0.0 62.0 3.8
8/20/22 - 0200 68.2 66.4 69 56.6 0.00 86.3 27.0 0.2 E | 84 1.9 269 -57 0.8 64.2 3.8
8/20/22 - 0100 69.5 68.0 67 57.2 0.00 85.4 27.0 0.4 NE | 46 1.6 268 -61 0.7 66.2 3.8
8/20/22 - 0000 71.5 69.3 63 57.1 0.00 84.8 27.1 0.7 ENE | 57 2.5 268 -63 1.4 68.6 3.8
8/19/22 - 2300 73.6 71.3 56 55.9 0.00 86.6 27.0 1.0 NE | 40 3.9 266 -67 1.3 72.1 3.8
8/19/22 - 2200 75.4 73.6 45 51.2 0.00 90.3 27.0 0.6 NE | 54 2.8 266 -67 1.6 73.2 3.8
8/19/22 - 2100 79.8 75.4 33 46.3 0.00 90.5 27.1 0.3 SSE | 150 2.8 264 -69 1.6 78.9 3.8
8/19/22 - 2000 85.7 79.8 29 46.7 0.00 92.3 27.1 0.9 NE | 38 3.6 263 -70 1.2 91.7 3.8
8/19/22 - 1900 94.4 85.6 29 53.4 0.00 92.1 27.0 1.8 ENE | 70 5.4 263 17 3.2 102.5 3.8
8/19/22 - 1800 98.7 94.3 25 54.8 0.00 92.4 26.9 2.3 NE | 47 5.3 263 156 3.4 108.4 3.8
8/19/22 - 1700 99.9 97.7 22 53.8 0.00 91.8 26.9 2.3 NE | 55 6.4 262 293 3.9 114.7 3.8
8/19/22 - 1600 99.2 95.3 23 53.7 0.00 91.7 26.8 2.5 E | 80 6.9 262 416 4.3 123.5 3.8
8/19/22 - 1500 98.7 95.9 24 54.5 0.00 91.1 26.8 2.1 NE | 36 5.3 263 500 3.5 131.9 3.8
8/19/22 - 1400 95.7 91.9 27 54.9 0.00 91.0 26.7 2.3 NE | 49 6.4 263 553 3.1 140.5 3.8
8/19/22 - 1300 93.4 91.7 30 56.2 0.00 88.5 26.7 2.4 NE | 43 5.3 262 563 2.7 137.1 3.8
8/19/22 - 1200 92.0 87.0 30 53.6 0.00 86.3 26.6 1.8 ENE | 71 6.2 262 532 4.9 135.9 3.8
8/19/22 - 1100 87.4 81.7 33 52.6 0.00 86.7 26.7 1.2 NNE | 26 3.6 262 456 2.1 128.5 3.8
8/19/22 - 1000 82.0 75.5 40 52.5 0.00 86.8 26.7 0.7 NNE | 26 3.4 263 342 2.0 117.2 3.8
8/19/22 - 0900 75.6 69.2 54 53.9 0.00 86.7 26.8 0.6 NE | 47 2.3 264 114 2.2 95.2 3.8
8/19/22 - 0800 69.4 62.4 64 53.8 0.00 85.4 26.9 0.3 SSE | 149 1.8 266 -15 1.0 67.2 3.8
8/19/22 - 0700 62.6 60.8 74 53.1 0.00 85.1 26.9 0.3 SSE | 158 1.8 269 -40 0.9 57.9 3.8
8/19/22 - 0600 61.5 61.0 73 52.6 0.00 84.4 27.0 0.3 SSE | 160 2.0 270 -49 1.1 56.2 3.8
8/19/22 - 0500 62.6 61.3 72 52.8 0.00 85.8 27.0 0.4 S | 175 2.0 269 -49 0.0 57.4 3.8
8/19/22 - 0400 63.8 62.3 71 53.3 0.00 89.0 27.0 0.1 SSE | 155 0.9 269 -52 0.1 59.5 3.8
8/19/22 - 0300 64.2 63.2 69 53.2 0.00 91.4 27.1 0.3 S | 170 1.4 268 -54 0.0 60.2 3.8
8/19/22 - 0200 64.9 63.3 67 52.9 0.00 92.1 27.1 0.1 S | 176 1.6 268 -56 0.0 60.4 3.8
8/19/22 - 0100 66.8 64.6 63 52.3 0.00 91.2 27.1 0.3 S | 186 1.6 267 -59 1.0 63.6 3.8
8/19/22 - 0000 68.2 66.6 59 52.7 0.00 89.9 27.1 0.5 ENE | 72 3.6 267 -67 1.1 66.1 3.8
8/18/22 - 2300 70.7 67.7 59 54.2 0.00 89.1 27.1 1.3 E | 86 4.4 266 -66 2.1 69.0 3.8
8/18/22 - 2200 74.5 70.5 54 55.0 0.00 89.0 27.1 1.3 ENE | 67 3.6 266 -69 2.0 73.6 3.8
8/18/22 - 2100 78.1 74.3 45 53.4 0.00 88.7 27.1 0.9 E | 84 3.6 265 -75 2.4 76.6 3.8
8/18/22 - 2000 85.4 78.0 37 52.0 0.00 88.5 27.1 1.2 E | 80 4.1 264 -74 2.7 89.9 3.8
8/18/22 - 1900 91.0 85.2 27 49.8 0.00 88.3 27.1 1.6 ENE | 67 5.3 263 14 2.8 98.5 3.8
8/18/22 - 1800 94.9 90.7 22 48.9 0.00 88.0 27.0 2.0 NE | 36 5.1 262 157 2.5 103.6 3.8
8/18/22 - 1700 96.9 94.4 20 48.3 0.00 87.9 26.9 2.3 ENE | 57 5.7 261 297 3.3 107.3 3.8
8/18/22 - 1600 98.0 95.1 20 48.5 0.00 87.6 26.9 2.6 NE | 48 8.4 262 420 3.3 114.7 3.8
8/18/22 - 1500 96.8 93.8 21 49.2 0.00 87.1 26.9 2.7 ENE | 72 7.2 262 508 4.5 122.6 3.8
8/18/22 - 1400 95.5 91.8 25 52.7 0.00 87.2 26.8 2.2 ENE | 68 6.7 261 558 4.0 138.8 3.8
8/18/22 - 1300 93.9 91.6 26 52.8 0.00 86.9 26.8 2.4 ENE | 60 6.0 262 566 4.3 144.5 3.8
8/18/22 - 1200 92.8 87.8 24 48.7 0.00 86.4 26.8 1.6 NE | 43 5.9 261 530 4.2 137.9 3.8
8/18/22 - 1100 88.1 81.8 29 49.6 0.00 87.3 26.8 1.3 NE | 35 4.4 261 457 3.7 132.2 3.8
8/18/22 - 1000 82.2 76.6 39 52.2 0.00 87.2 26.8 1.1 NE | 51 4.6 262 343 3.0 121.7 3.8
8/18/22 - 0900 77.0 71.5 49 53.2 0.00 87.2 26.9 0.7 NE | 49 3.2 263 115 2.1 99.8 3.8
8/18/22 - 0800 71.9 64.8 60 53.8 0.00 87.7 27.0 0.3 ESE | 107 2.5 266 -16 1.3 71.0 3.8
8/18/22 - 0700 64.9 63.3 68 53.2 0.00 88.0 27.0 0.2 SSE | 149 1.2 268 -40 0.0 61.0 3.8
8/18/22 - 0600 65.1 63.5 68 53.3 0.00 88.2 27.1 0.2 S | 176 1.2 268 -48 0.0 58.9 3.8
8/18/22 - 0500 65.9 64.5 66 53.3 0.00 88.3 27.1 0.2 SSE | 151 1.0 268 -50 0.0 61.4 3.8
8/18/22 - 0400 66.7 65.2 63 53.2 0.00 88.5 27.1 0.4 S | 174 1.9 267 -52 1.1 62.5 3.8
8/18/22 - 0300 67.6 66.3 60 52.5 0.00 88.7 27.1 0.1 SSE | 148 1.3 266 -53 0.0 64.1 3.8
8/18/22 - 0200 70.1 67.2 56 52.7 0.00 89.0 27.1 0.4 SE | 124 2.3 266 -57 1.1 65.7 3.8
8/18/22 - 0100 71.6 69.0 54 52.8 0.00 89.0 27.1 0.3 SE | 134 1.7 266 -59 0.0 67.9 3.8
8/18/22 - 0000 74.4 71.5 50 53.4 0.00 88.9 27.1 0.7 ESE | 112 2.2 266 -63 1.4 71.1 3.8
8/17/22 - 2300 77.8 74.2 45 53.4 0.00 89.0 27.1 0.6 ENE | 58 3.4 265 -66 1.6 73.6 3.8
8/17/22 - 2200 82.7 77.7 28 42.8 0.00 90.6 27.2 0.6 S | 181 2.1 264 -65 0.4 76.8 3.8
8/17/22 - 2100 85.7 82.4 21 40.1 0.00 88.9 27.1 1.0 WSW | 239 3.9 262 -73 3.1 84.5 3.8
8/17/22 - 2000 92.7 85.5 22 44.5 0.00 88.6 27.1 1.1 WNW | 300 4.9 262 -73 4.2 94.1 3.8
8/17/22 - 1900 95.7 92.5 13 36.2 0.00 88.3 27.1 3.5 WSW | 255 7.6 261 18 5.4 101.6 3.8
8/17/22 - 1800 98.4 94.8 17 44.1 0.00 88.0 27.1 4.4 WSW | 243 10.3 261 167 6.2 108.1 3.8
8/17/22 - 1700 101.8 96.8 18 47.8 0.00 87.5 27.0 4.8 WSW | 252 10.7 261 304 8.4 117.8 3.8
8/17/22 - 1600 102.2 99.0 17 47.2 0.00 87.2 26.9 2.1 NNE | 24 6.1 261 392 4.3 120.4 3.8
8/17/22 - 1500 101.2 98.8 18 49.6 0.00 87.3 26.9 2.1 NE | 35 6.7 261 310 3.1 134.7 3.8
8/17/22 - 1400 100.5 97.8 21 52.4 0.00 86.5 26.8 2.3 ENE | 72 7.4 261 547 3.7 146.9 3.8
8/17/22 - 1300 98.6 94.2 21 51.3 0.00 86.4 26.8 2.0 NE | 48 6.0 261 559 3.2 145.2 3.8
8/17/22 - 1200 95.5 90.4 24 51.1 0.00 86.7 26.8 1.4 NE | 40 4.9 261 527 2.9 142.5 3.8
8/17/22 - 1100 91.4 87.5 26 50.3 0.00 87.0 26.8 1.5 NE | 40 5.2 261 453 2.9 134.2 3.8
8/17/22 - 1000 87.7 81.0 34 52.3 0.00 87.5 26.8 1.3 NNE | 32 4.2 261 341 2.5 121.4 3.8
8/17/22 - 0900 81.6 75.0 42 53.0 0.00 87.6 26.9 1.1 ENE | 59 4.0 263 112 3.0 100.1 3.8
8/17/22 - 0800 75.3 66.5 53 52.5 0.00 87.6 27.0 0.3 WSW | 252 3.6 264 -6 2.7 72.6 3.8
8/17/22 - 0700 66.6 65.0 61 51.6 0.00 88.0 27.1 0.3 SSE | 154 1.4 267 -38 0.0 62.7 3.8
8/17/22 - 0600 66.4 65.2 60 51.4 0.00 88.1 27.1 0.4 SSE | 163 2.1 267 -48 0.8 60.4 3.8
8/17/22 - 0500 67.0 65.8 60 51.9 0.00 88.5 27.1 0.3 SSE | 168 1.5 267 -50 0.0 62.8 3.8
8/17/22 - 0400 68.0 66.4 58 51.8 0.00 88.8 27.1 0.4 S | 170 1.8 266 -52 0.4 64.3 3.8
8/17/22 - 0300 69.3 67.7 55 51.9 0.00 88.6 27.1 0.3 SSE | 164 1.8 266 -52 0.8 66.2 3.8
8/17/22 - 0200 71.0 69.1 52 51.5 0.00 89.0 27.2 0.2 S | 176 1.4 266 -52 0.9 67.2 3.8
8/17/22 - 0100 72.4 70.8 50 51.7 0.00 89.7 27.2 0.0 SE | 144 0.7 265 -53 0.0 68.5 3.8
8/17/22 - 0000 75.1 72.2 46 51.1 0.00 88.9 27.2 0.1 SE | 135 1.8 265 -61 0.0 71.5 3.8
8/16/22 - 2300 77.1 75.1 40 50.3 0.00 88.9 27.2 0.5 E | 97 2.8 264 -67 0.5 72.3 3.8
8/16/22 - 2200 82.1 76.8 34 48.4 0.00 89.1 27.2 0.4 SE | 138 2.1 264 -70 1.1 77.7 3.8
8/16/22 - 2100 88.0 82.0 28 47.7 0.00 88.9 27.1 0.7 ESE | 113 2.6 263 -76 1.4 85.4 3.8
8/16/22 - 2000 95.4 88.0 21 45.8 0.00 88.7 27.1 1.5 W | 260 7.4 262 -73 5.0 94.4 3.8
8/16/22 - 1900 99.3 95.3 17 45.8 0.00 87.7 27.1 1.0 NW | 304 5.7 261 17 4.8 101.7 3.8
8/16/22 - 1800 102.2 99.0 16 47.0 0.00 88.1 27.1 1.8 WNW | 299 8.4 261 159 6.0 107.0 3.8
8/16/22 - 1700 101.7 99.1 17 47.0 0.00 87.8 27.0 5.1 SW | 224 11.0 261 300 7.6 114.1 3.8
8/16/22 - 1600 103.9 100.6 14 43.0 0.00 87.6 26.9 3.6 ESE | 121 8.8 261 416 4.5 121.4 3.8
8/16/22 - 1500 103.6 100.3 16 47.2 0.00 83.1 26.9 2.4 ENE | 64 8.5 261 494 3.0 142.0 3.8
8/16/22 - 1400 101.9 99.4 20 51.7 0.00 86.8 26.8 2.0 ENE | 57 5.6 261 522 3.4 152.3 3.8
8/16/22 - 1300 100.9 94.1 23 53.3 0.00 86.7 26.8 1.8 ENE | 74 7.3 261 588 4.1 150.8 3.8
8/16/22 - 1200 96.4 91.9 24 51.5 0.00 86.7 26.8 1.4 NNE | 26 4.4 261 468 3.8 142.0 3.8
8/16/22 - 1100 93.3 85.9 26 50.5 0.00 87.1 26.8 1.3 NE | 34 4.5 261 472 2.7 143.7 3.8
8/16/22 - 1000 86.1 79.4 34 51.7 0.00 87.1 26.9 0.9 NNE | 27 4.5 262 344 2.4 127.4 3.8
8/16/22 - 0900 79.6 72.8 44 52.0 0.00 87.1 26.9 0.8 NW | 320 3.9 262 97 3.2 104.6 3.8
8/16/22 - 0800 73.1 64.3 56 52.1 0.00 87.4 27.0 0.2 ENE | 64 1.7 265 -16 0.7 70.3 3.8
8/16/22 - 0700 64.3 63.3 63 50.9 0.00 87.9 27.1 0.3 SSE | 157 1.3 267 -43 0.5 59.6 3.8
8/16/22 - 0600 64.5 63.3 63 51.0 0.00 88.0 27.1 0.3 SSE | 164 1.2 267 -52 0.0 57.1 3.8
8/16/22 - 0500 65.1 64.1 62 51.2 0.00 88.2 27.1 0.3 SSE | 153 1.1 267 -54 0.0 57.7 3.8
8/16/22 - 0400 66.4 65.0 59 50.8 0.00 88.5 27.2 0.3 S | 188 1.5 267 -54 0.0 59.7 3.8
8/16/22 - 0300 67.6 65.9 57 50.6 0.00 88.6 27.2 0.3 SE | 142 1.6